EKSN/CNL METAR and TAF weather

Enter ICAO airport designator
Station Type Date Time Source
EKSN METAR 2019/06/26 13:50 UTC NOAA

EKSN 261350Z 27011KT 9999 BKN011 19/15 Q1019


Station Type Date Time Source
EKSN Decoded METAR 2019/06/26 13:50 UTC NOAA

Sindal Flyveplads, Denmark (EKSN) 57-30N 010-13E 28M
Jun 26, 2019 - 09:50 AM EDT / 2019.06.26 1350 UTC
Wind: from the W (270 degrees) at 13 MPH (11 KT):0
Visibility: greater than 7 mile(s):0
Sky conditions: mostly cloudy
Temperature: 66 F (19 C)
Dew Point: 59 F (15 C)
Relative Humidity: 77%
Pressure (altimeter): 30.09 in. Hg (1019 hPa)
ob: EKSN 261350Z 27011KT 9999 BKN011 19/15 Q1019
cycle: 14

Station Type Date Time Source
EKSN TAF UTC NOAA

Error!

Example: see airport list